Time;durP1;ratioP1;P1;durP2;ratioP2;P2;SDS_P1;SDS_P2;PMS_P1;PMS_P2;Temp;Humidity;BMP_temperature;BMP_pressure;BME280_temperature;BME280_humidity;BME280_pressure;Samples;Min_cycle;Max_cycle;Signal;HPM_P1;HPM_P2
2023/02/21 02:14:37;;;;;;;13.15;10.05;;;11.20;99.90;;;;;;5074572;28;20707;-79
2023/02/21 02:17:12;;;;;;;23.80;20.20;;;11.20;99.90;;;;;;5074005;28;20327;-85
2023/02/21 02:20:22;;;;;;;25.33;17.85;;;11.20;99.90;;;;;;5074961;28;20302;-78
2023/02/21 02:23:24;;;;;;;15.13;12.25;;;11.20;99.90;;;;;;5072520;28;20258;-85
2023/02/21 02:26:08;;;;;;;11.77;10.63;;;11.20;99.90;;;;;;5073717;28;20239;-85
2023/02/21 02:28:55;;;;;;;13.50;10.20;;;11.20;99.90;;;;;;5074071;28;20317;-78
2023/02/21 02:32:04;;;;;;;12.43;9.90;;;11.20;99.90;;;;;;5074385;28;20250;-78
2023/02/21 02:34:43;;;;;;;11.75;10.55;;;11.20;99.90;;;;;;5066571;28;20239;-78
2023/02/21 02:37:18;;;;;;;11.27;10.15;;;11.30;99.90;;;;;;5073442;28;20220;-85
2023/02/21 02:39:51;;;;;;;32.17;23.70;;;11.20;99.90;;;;;;5074480;28;20619;-86
2023/02/21 02:42:31;;;;;;;15.00;12.70;;;11.20;99.90;;;;;;5073205;28;20273;-78
2023/02/21 02:45:07;;;;;;;13.70;12.02;;;11.20;99.90;;;;;;5073745;28;20262;-86
2023/02/21 02:47:40;;;;;;;17.90;13.00;;;11.20;99.90;;;;;;5073164;28;20231;-78
2023/02/21 02:50:25;;;;;;;30.33;21.33;;;11.20;99.90;;;;;;5074039;28;20239;-86
2023/02/21 02:52:54;;;;;;;13.13;11.75;;;11.20;99.90;;;;;;5074097;28;20226;-86
2023/02/21 02:55:34;;;;;;;27.60;18.63;;;11.20;99.90;;;;;;5073416;28;20244;-85
2023/02/21 02:58:02;;;;;;;52.38;34.05;;;11.30;99.90;;;;;;5073234;28;20227;-86
2023/02/21 03:00:31;;;;;;;27.77;19.85;;;11.30;99.90;;;;;;5073230;28;20216;-78
2023/02/21 03:03:15;;;;;;;20.25;14.30;;;11.30;99.90;;;;;;5072984;28;20235;-85
2023/02/21 03:06:01;;;;;;;16.88;14.02;;;11.40;99.90;;;;;;5073814;28;20665;-78
2023/02/21 03:08:40;;;;;;;21.27;16.13;;;11.30;99.90;;;;;;5072137;28;20254;-82
2023/02/21 03:11:14;;;;;;;12.95;10.82;;;11.40;99.90;;;;;;5074633;28;20246;-85
2023/02/21 03:13:47;;;;;;;10.18;8.95;;;11.30;99.90;;;;;;5074103;28;20223;-78
2023/02/21 03:16:19;;;;;;;16.13;11.77;;;11.40;99.90;;;;;;5074300;28;20223;-86
2023/02/21 03:18:51;;;;;;;12.07;10.85;;;11.40;99.90;;;;;;5073979;28;20232;-86
2023/02/21 03:21:23;;;;;;;12.15;10.65;;;11.40;99.90;;;;;;5073199;28;20587;-86
2023/02/21 03:23:53;;;;;;;16.63;13.73;;;11.40;99.90;;;;;;5073430;28;20282;-86
2023/02/21 03:26:20;;;;;;;18.00;14.02;;;11.40;99.90;;;;;;5072452;28;20254;-79
2023/02/21 03:28:48;;;;;;;13.45;11.55;;;11.40;99.90;;;;;;5072740;28;20250;-78
2023/02/21 03:31:19;;;;;;;33.88;25.63;;;11.40;99.90;;;;;;5062200;28;20275;-86
2023/02/21 03:33:47;;;;;;;18.88;14.82;;;11.40;99.90;;;;;;5072962;28;20219;-86
2023/02/21 03:36:15;;;;;;;12.32;11.05;;;11.40;99.90;;;;;;5070848;28;20216;-79
2023/02/21 03:38:44;;;;;;;41.20;37.03;;;11.40;99.90;;;;;;5072932;28;20228;-78
2023/02/21 03:41:14;;;;;;;12.57;11.27;;;11.40;99.90;;;;;;5032444;28;20259;-85
2023/02/21 03:43:41;;;;;;;13.90;12.07;;;11.40;99.90;;;;;;5033414;28;20576;-85
2023/02/21 03:46:08;;;;;;;33.40;23.70;;;11.40;99.90;;;;;;5032966;28;20572;-86
2023/02/21 03:48:35;;;;;;;13.15;10.90;;;11.50;99.90;;;;;;5025734;28;20290;-86
2023/02/21 03:51:02;;;;;;;21.00;15.95;;;11.50;99.90;;;;;;5046576;28;20225;-86
2023/02/21 03:53:29;;;;;;;20.48;12.38;;;11.50;99.90;;;;;;5033541;28;20221;-78
2023/02/21 03:56:01;;;;;;;19.52;14.20;;;11.50;99.90;;;;;;5033633;28;20241;-85
2023/02/21 03:58:28;;;;;;;11.43;9.80;;;11.40;99.90;;;;;;5035301;28;20252;-86
2023/02/21 04:00:58;;;;;;;11.05;8.90;;;11.50;99.90;;;;;;5037493;28;20279;-86
2023/02/21 04:03:25;;;;;;;15.20;11.10;;;11.50;99.90;;;;;;5046897;28;20312;-85
2023/02/21 04:05:52;;;;;;;8.93;8.02;;;11.50;99.90;;;;;;5047385;28;20221;-79
2023/02/21 04:08:19;;;;;;;13.90;11.80;;;11.50;99.90;;;;;;5046496;28;20236;-79
2023/02/21 04:10:47;;;;;;;13.75;11.02;;;11.50;99.90;;;;;;5047343;28;20205;-86
2023/02/21 04:13:15;;;;;;;11.00;8.95;;;11.50;99.90;;;;;;5045966;28;20225;-85
2023/02/21 04:15:42;;;;;;;13.55;9.65;;;11.50;99.90;;;;;;5043902;28;20240;-86
2023/02/21 04:18:09;;;;;;;11.57;10.05;;;11.50;99.90;;;;;;5039252;28;20229;-86
2023/02/21 04:20:36;;;;;;;10.25;8.27;;;11.60;99.90;;;;;;5037522;28;20671;-78
2023/02/21 04:23:03;;;;;;;9.48;8.57;;;11.60;99.90;;;;;;5036824;28;20240;-78
2023/02/21 04:25:30;;;;;;;10.30;9.05;;;11.60;99.90;;;;;;5035996;28;20230;-78
2023/02/21 04:27:57;;;;;;;9.23;8.32;;;11.60;99.90;;;;;;5036654;28;20244;-86
2023/02/21 04:30:28;;;;;;;8.75;7.80;;;11.60;99.90;;;;;;5036018;28;20291;-85
2023/02/21 04:32:56;;;;;;;13.68;12.07;;;11.60;99.90;;;;;;5036467;28;20232;-78
2023/02/21 04:35:25;;;;;;;9.50;8.55;;;11.60;99.90;;;;;;5036233;28;20256;-85
2023/02/21 04:37:52;;;;;;;9.00;8.18;;;11.70;99.90;;;;;;5036746;28;20331;-86
2023/02/21 04:40:20;;;;;;;9.20;8.30;;;11.60;99.90;;;;;;5061868;28;20224;-86
2023/02/21 04:42:47;;;;;;;11.68;9.38;;;11.70;99.90;;;;;;5074736;28;20224;-78
2023/02/21 04:45:14;;;;;;;9.38;7.97;;;11.70;99.90;;;;;;5075844;28;20219;-78
2023/02/21 04:47:42;;;;;;;11.10;10.00;;;11.70;99.90;;;;;;5075114;28;20228;-85
2023/02/21 04:50:10;;;;;;;9.90;8.07;;;11.70;99.90;;;;;;5073726;28;20238;-86
2023/02/21 04:52:39;;;;;;;15.18;13.05;;;11.70;99.90;;;;;;5075716;28;20228;-86
2023/02/21 04:55:07;;;;;;;11.70;10.13;;;11.70;99.90;;;;;;5076303;28;20696;-86
2023/02/21 04:57:34;;;;;;;9.18;8.25;;;11.60;99.90;;;;;;5075217;28;20236;-78
2023/02/21 05:00:06;;;;;;;12.65;11.35;;;11.70;99.90;;;;;;5076107;28;20656;-78
2023/02/21 05:02:33;;;;;;;10.82;9.63;;;11.70;99.90;;;;;;5075203;28;20259;-85
2023/02/21 05:05:02;;;;;;;11.57;9.35;;;11.70;99.90;;;;;;5076226;28;20219;-78
2023/02/21 05:07:29;;;;;;;11.48;10.27;;;11.70;99.90;;;;;;5074438;28;20228;-78
2023/02/21 05:09:56;;;;;;;15.95;11.90;;;11.70;99.90;;;;;;5075273;28;20303;-78
2023/02/21 05:12:23;;;;;;;10.25;8.93;;;11.70;99.90;;;;;;5075005;28;20224;-78
2023/02/21 05:14:50;;;;;;;9.80;8.77;;;11.70;99.90;;;;;;5074981;28;20227;-78
2023/02/21 05:17:17;;;;;;;10.27;9.05;;;11.70;99.90;;;;;;5063352;28;20224;-78
2023/02/21 05:19:54;;;;;;;13.30;10.43;;;11.70;99.90;;;;;;5074878;28;20273;-78
2023/02/21 05:22:22;;;;;;;8.75;7.85;;;11.70;99.90;;;;;;5074953;28;20261;-78
2023/02/21 05:24:50;;;;;;;10.23;9.20;;;11.70;99.90;;;;;;5073453;28;20380;-85
2023/02/21 05:27:18;;;;;;;12.10;10.48;;;11.70;99.90;;;;;;5074601;28;20236;-86
2023/02/21 05:29:48;;;;;;;10.20;9.15;;;11.70;99.90;;;;;;5074568;28;20349;-83
2023/02/21 05:32:22;;;;;;;10.15;9.15;;;11.70;99.90;;;;;;5075055;28;20224;-85
2023/02/21 05:34:50;;;;;;;10.95;9.57;;;11.60;99.90;;;;;;5074641;28;20724;-85
2023/02/21 05:37:20;;;;;;;10.05;9.05;;;11.60;99.90;;;;;;5064563;28;20223;-77
2023/02/21 05:39:48;;;;;;;11.25;10.07;;;11.50;99.90;;;;;;5072127;28;20547;-77
2023/02/21 05:42:16;;;;;;;10.68;8.75;;;11.50;99.90;;;;;;5075287;28;20253;-84
2023/02/21 05:44:45;;;;;;;11.32;9.25;;;11.40;99.90;;;;;;5073807;28;20220;-79
2023/02/21 05:47:14;;;;;;;11.95;9.77;;;11.40;99.90;;;;;;5075046;28;20228;-77
2023/02/21 05:49:41;;;;;;;11.57;10.32;;;11.40;99.90;;;;;;5074500;28;20696;-83
2023/02/21 05:52:12;;;;;;;11.52;10.30;;;11.50;99.90;;;;;;5075018;28;20674;-84
2023/02/21 05:54:39;;;;;;;24.42;16.73;;;11.50;99.90;;;;;;5075046;28;20216;-84
2023/02/21 05:57:08;;;;;;;10.75;9.18;;;11.50;99.90;;;;;;5075348;28;20231;-77
2023/02/21 05:59:35;;;;;;;10.50;9.02;;;11.50;99.90;;;;;;5074362;28;20222;-77
2023/02/21 06:02:03;;;;;;;10.63;9.27;;;11.50;99.90;;;;;;5073940;28;20244;-77
2023/02/21 06:04:30;;;;;;;13.93;11.43;;;11.50;99.90;;;;;;5073686;28;20235;-85
2023/02/21 06:06:57;;;;;;;10.07;7.85;;;11.50;99.90;;;;;;5073681;28;20248;-84
2023/02/21 06:09:24;;;;;;;13.00;10.43;;;11.50;99.90;;;;;;5073529;28;20251;-77
2023/02/21 06:11:51;;;;;;;11.90;10.52;;;11.50;99.90;;;;;;5073196;28;20230;-84
2023/02/21 06:14:21;;;;;;;12.30;11.02;;;11.50;99.90;;;;;;5073653;28;20220;-84
2023/02/21 06:16:48;;;;;;;14.57;11.40;;;11.50;99.90;;;;;;5073609;28;20228;-77
2023/02/21 06:19:16;;;;;;;11.43;10.23;;;11.50;99.90;;;;;;5073773;28;20289;-77
2023/02/21 06:21:44;;;;;;;14.07;12.40;;;11.50;99.90;;;;;;5073194;28;20586;-77
2023/02/21 06:24:11;;;;;;;12.90;10.07;;;11.50;99.90;;;;;;5076106;28;20226;-77
2023/02/21 06:26:39;;;;;;;13.75;12.02;;;11.50;99.90;;;;;;5080549;28;20220;-77
2023/02/21 06:29:07;;;;;;;10.68;9.50;;;11.50;99.90;;;;;;5086984;28;20258;-77
2023/02/21 06:31:44;;;;;;;8.45;7.55;;;11.50;99.90;;;;;;5086201;28;20220;-77
2023/02/21 06:34:12;;;;;;;13.48;10.65;;;11.50;99.90;;;;;;5082939;28;20254;-83
2023/02/21 06:36:39;;;;;;;9.52;8.05;;;11.50;99.90;;;;;;5089622;28;20276;-85
2023/02/21 06:39:07;;;;;;;9.50;8.50;;;11.50;99.90;;;;;;5077811;28;20235;-84
2023/02/21 06:41:34;;;;;;;10.63;9.05;;;11.50;99.90;;;;;;5074401;28;20220;-85
2023/02/21 06:44:01;;;;;;;10.88;8.45;;;11.50;99.90;;;;;;5074963;28;20365;-85
2023/02/21 06:46:30;;;;;;;8.02;7.32;;;11.50;99.90;;;;;;5074392;28;20220;-84
2023/02/21 06:48:59;;;;;;;9.05;8.05;;;11.50;99.90;;;;;;5064737;28;20228;-84
2023/02/21 06:51:28;;;;;;;10.35;8.10;;;11.50;99.90;;;;;;5073956;28;20223;-85
2023/02/21 06:53:56;;;;;;;8.38;7.53;;;11.50;99.90;;;;;;5073320;28;20320;-85
2023/02/21 06:56:24;;;;;;;7.68;6.75;;;11.50;99.90;;;;;;5073615;28;20692;-76
2023/02/21 06:58:50;;;;;;;7.88;6.93;;;11.50;99.90;;;;;;5073575;28;20224;-83
2023/02/21 07:01:18;;;;;;;8.13;7.32;;;11.50;99.90;;;;;;5073529;28;20536;-77
2023/02/21 07:03:47;;;;;;;10.75;8.55;;;11.50;99.90;;;;;;5073444;28;20224;-77
2023/02/21 07:06:16;;;;;;;10.02;8.52;;;11.50;99.90;;;;;;5072528;28;20235;-84
2023/02/21 07:08:43;;;;;;;11.55;8.10;;;11.50;99.90;;;;;;5072373;28;20311;-84
2023/02/21 07:11:10;;;;;;;10.43;8.20;;;11.50;99.90;;;;;;5072778;28;20223;-78
2023/02/21 07:13:38;;;;;;;11.82;8.57;;;11.50;99.90;;;;;;5073582;28;20242;-83
2023/02/21 07:16:06;;;;;;;9.15;6.53;;;11.50;99.90;;;;;;5072204;28;20220;-77
2023/02/21 07:18:39;;;;;;;8.02;7.20;;;11.50;99.90;;;;;;5071971;28;20224;-79
2023/02/21 07:21:06;;;;;;;8.68;7.43;;;11.60;99.90;;;;;;5073366;28;20232;-77
2023/02/21 07:23:34;;;;;;;8.40;7.60;;;11.50;99.90;;;;;;5073385;28;20227;-78
2023/02/21 07:26:02;;;;;;;7.00;6.18;;;11.50;99.90;;;;;;5072763;28;20519;-77
2023/02/21 07:28:29;;;;;;;6.30;5.70;;;11.50;99.90;;;;;;5073111;28;20240;-84
2023/02/21 07:30:56;;;;;;;8.35;7.45;;;11.50;99.90;;;;;;5072820;28;20236;-84
2023/02/21 07:33:24;;;;;;;10.00;8.45;;;11.50;99.90;;;;;;5072659;28;20289;-81
2023/02/21 07:36:00;;;;;;;9.80;7.28;;;11.50;99.90;;;;;;5073315;28;20547;-78
2023/02/21 07:38:31;;;;;;;7.03;5.78;;;11.50;99.90;;;;;;5072631;28;20353;-78
2023/02/21 07:41:01;;;;;;;7.38;5.63;;;11.50;99.90;;;;;;5074979;28;20224;-85
2023/02/21 07:43:31;;;;;;;8.40;6.38;;;11.50;99.90;;;;;;5079208;28;20633;-85
2023/02/21 07:45:58;;;;;;;9.07;6.75;;;11.50;99.90;;;;;;5069545;28;20228;-77
2023/02/21 07:48:25;;;;;;;6.95;6.20;;;11.50;99.90;;;;;;5077936;28;20319;-84
2023/02/21 07:50:52;;;;;;;7.00;5.65;;;11.50;99.90;;;;;;5080048;28;20242;-84
2023/02/21 07:53:20;;;;;;;6.60;5.90;;;11.50;99.90;;;;;;5079490;28;20234;-84
2023/02/21 07:55:47;;;;;;;4.85;4.38;;;11.50;99.90;;;;;;5079269;28;20314;-77
2023/02/21 07:58:18;;;;;;;5.18;4.57;;;11.50;99.90;;;;;;5067728;28;20238;-77
2023/02/21 08:00:46;;;;;;;5.22;4.50;;;11.60;99.90;;;;;;5078722;28;20219;-77
2023/02/21 08:03:17;;;;;;;5.97;4.85;;;11.60;99.90;;;;;;5078572;28;20612;-77
2023/02/21 08:05:44;;;;;;;7.07;5.88;;;11.70;99.90;;;;;;5079230;28;20610;-78
2023/02/21 08:08:12;;;;;;;5.07;4.57;;;11.60;99.90;;;;;;5073277;28;20239;-79
2023/02/21 08:10:39;;;;;;;6.63;4.90;;;11.60;99.90;;;;;;5079665;28;20552;-78
2023/02/21 08:13:06;;;;;;;6.82;6.15;;;11.60;99.90;;;;;;5079534;28;20565;-78
2023/02/21 08:15:34;;;;;;;6.05;5.53;;;11.60;99.90;;;;;;5078417;28;20227;-78
2023/02/21 08:18:01;;;;;;;5.57;5.07;;;11.70;99.90;;;;;;5078997;28;20232;-85
2023/02/21 08:20:29;;;;;;;4.88;4.47;;;11.70;99.90;;;;;;5060748;28;20224;-85
2023/02/21 08:23:08;;;;;;;6.50;5.82;;;11.70;99.90;;;;;;5079103;28;20685;-85
2023/02/21 08:25:35;;;;;;;3.75;2.78;;;11.80;99.90;;;;;;5079554;28;20219;-85
2023/02/21 08:28:02;;;;;;;2.95;2.13;;;11.80;99.90;;;;;;5078300;28;20285;-85
2023/02/21 08:30:33;;;;;;;5.05;2.35;;;11.80;99.90;;;;;;5079481;28;20289;-78
2023/02/21 08:33:08;;;;;;;2.60;2.40;;;11.80;99.90;;;;;;5068917;28;20650;-78
2023/02/21 08:35:35;;;;;;;3.35;2.30;;;11.80;99.90;;;;;;5079894;28;20212;-85
2023/02/21 08:38:03;;;;;;;2.80;2.15;;;11.80;99.90;;;;;;5079393;28;20247;-78
2023/02/21 08:40:31;;;;;;;3.83;3.17;;;11.80;99.90;;;;;;5078387;28;20232;-85
2023/02/21 08:43:00;;;;;;;3.45;2.80;;;11.90;99.90;;;;;;5077644;28;20227;-78
2023/02/21 08:45:29;;;;;;;2.55;2.15;;;11.90;99.90;;;;;;5078941;28;20242;-78
2023/02/21 08:47:57;;;;;;;3.15;1.83;;;11.90;99.90;;;;;;5077199;28;20270;-78
2023/02/21 08:50:28;;;;;;;3.15;2.85;;;11.90;99.90;;;;;;5079467;28;20219;-78
2023/02/21 08:52:57;;;;;;;2.65;1.95;;;11.90;99.90;;;;;;5067688;28;20667;-78
2023/02/21 08:55:25;;;;;;;2.97;1.67;;;11.90;99.90;;;;;;5075931;28;20224;-78
2023/02/21 08:57:54;;;;;;;3.05;2.75;;;12.00;99.90;;;;;;5065977;28;20228;-85
2023/02/21 09:00:23;;;;;;;4.78;4.30;;;11.90;99.90;;;;;;5075445;28;20216;-78
2023/02/21 09:02:57;;;;;;;2.45;2.25;;;12.00;99.90;;;;;;5075138;28;20323;-85
2023/02/21 09:05:33;;;;;;;2.53;2.10;;;12.00;99.90;;;;;;5075582;28;20224;-78
2023/02/21 09:08:04;;;;;;;2.70;2.42;;;12.00;99.90;;;;;;5073759;28;20246;-78
2023/02/21 09:10:33;;;;;;;3.78;2.38;;;12.10;99.90;;;;;;5057751;28;20223;-79
2023/02/21 09:13:00;;;;;;;2.22;2.00;;;12.10;99.90;;;;;;5075633;28;20323;-85
2023/02/21 09:15:28;;;;;;;2.85;2.15;;;12.10;99.90;;;;;;5075566;28;20246;-85
2023/02/21 09:17:55;;;;;;;4.80;3.17;;;12.10;99.90;;;;;;5063558;28;20227;-85
2023/02/21 09:20:26;;;;;;;3.38;3.00;;;12.10;99.90;;;;;;5075355;28;20322;-78
2023/02/21 09:22:54;;;;;;;2.50;2.28;;;12.10;99.90;;;;;;5074729;28;20235;-85
2023/02/21 09:25:24;;;;;;;4.15;2.63;;;12.20;99.90;;;;;;5074881;28;20252;-85
2023/02/21 09:27:52;;;;;;;4.45;2.35;;;12.20;99.90;;;;;;5074836;28;20231;-78
2023/02/21 09:30:23;;;;;;;2.95;2.08;;;12.20;99.90;;;;;;5074644;28;20537;-78
2023/02/21 09:32:50;;;;;;;6.95;2.50;;;12.20;99.90;;;;;;5074175;28;20319;-79
2023/02/21 09:35:18;;;;;;;4.47;2.50;;;12.20;99.90;;;;;;5075105;28;20239;-85
2023/02/21 09:37:46;;;;;;;4.30;2.88;;;12.20;99.90;;;;;;5075220;28;20231;-78
2023/02/21 09:40:21;;;;;;;4.25;2.65;;;12.10;99.90;;;;;;5073923;28;20239;-85
2023/02/21 09:42:52;;;;;;;5.22;2.38;;;12.10;99.90;;;;;;5074772;28;20266;-78
2023/02/21 09:45:21;;;;;;;4.47;3.33;;;12.10;99.90;;;;;;5074442;28;20239;-85
2023/02/21 09:47:56;;;;;;;4.85;2.95;;;12.20;99.90;;;;;;5074871;28;20231;-85
2023/02/21 09:50:29;;;;;;;3.90;2.55;;;12.20;99.90;;;;;;5074752;28;20403;-85
2023/02/21 09:53:01;;;;;;;6.10;3.10;;;12.20;99.90;;;;;;5074752;28;20224;-85
2023/02/21 09:55:31;;;;;;;6.20;2.42;;;12.20;99.90;;;;;;5073765;28;20231;-78
2023/02/21 09:57:58;;;;;;;3.15;2.30;;;12.20;99.90;;;;;;5074166;28;20228;-85
2023/02/21 10:00:32;;;;;;;4.47;2.30;;;12.20;99.90;;;;;;5073934;28;20606;-78
2023/02/21 10:03:12;;;;;;;7.60;6.07;;;12.20;99.90;;;;;;5073931;28;20231;-85
2023/02/21 10:05:44;;;;;;;9.88;2.75;;;12.20;99.90;;;;;;5072265;28;20223;-78
2023/02/21 10:08:40;;;;;;;6.47;2.67;;;12.20;99.90;;;;;;5070834;28;20231;-78
2023/02/21 10:11:20;;;;;;;7.93;5.07;;;12.20;99.90;;;;;;5064224;28;20293;-81
2023/02/21 10:13:54;;;;;;;12.75;9.30;;;12.30;99.90;;;;;;5062422;28;20306;-78
2023/02/21 10:16:27;;;;;;;14.32;3.75;;;12.20;99.90;;;;;;5094546;28;20230;-78
2023/02/21 10:19:04;;;;;;;10.07;3.72;;;12.30;99.90;;;;;;5113611;28;20284;-84
2023/02/21 10:21:35;;;;;;;8.60;3.72;;;12.30;99.90;;;;;;5113597;28;20211;-85
2023/02/21 10:24:11;;;;;;;11.63;3.63;;;12.30;99.90;;;;;;5086749;28;20220;-78
2023/02/21 10:26:41;;;;;;;10.60;3.53;;;12.40;99.90;;;;;;5096905;28;20219;-83
2023/02/21 10:29:20;;;;;;;8.30;4.13;;;12.30;99.90;;;;;;5106471;28;20311;-84
2023/02/21 10:31:48;;;;;;;7.97;3.22;;;12.30;99.90;;;;;;5081887;28;20223;-84
2023/02/21 10:34:23;;;;;;;7.38;2.40;;;12.30;99.90;;;;;;5085679;28;20223;-84
2023/02/21 10:36:52;;;;;;;10.13;2.90;;;12.30;99.90;;;;;;5092353;28;20698;-77
2023/02/21 10:39:29;;;;;;;8.25;2.60;;;12.40;99.90;;;;;;5093116;28;20231;-84
2023/02/21 10:41:58;;;;;;;4.88;2.45;;;12.40;99.90;;;;;;5081788;28;20524;-85
2023/02/21 10:44:28;;;;;;;7.00;2.30;;;12.40;99.90;;;;;;5090091;28;20224;-78
2023/02/21 10:47:01;;;;;;;10.63;3.17;;;12.50;99.90;;;;;;5093079;28;20243;-78
2023/02/21 10:49:33;;;;;;;6.78;2.38;;;12.50;99.90;;;;;;5071400;28;20216;-78
2023/02/21 10:52:16;;;;;;;10.13;3.97;;;12.50;99.90;;;;;;5072705;28;20239;-85
2023/02/21 10:55:01;;;;;;;8.40;3.50;;;12.50;99.90;;;;;;5071883;28;20249;-78
2023/02/21 10:57:31;;;;;;;9.73;2.05;;;12.60;99.90;;;;;;5074558;28;20315;-84
2023/02/21 10:59:58;;;;;;;4.60;2.85;;;12.60;99.90;;;;;;5081138;28;20626;-85
2023/02/21 11:02:31;;;;;;;10.43;2.95;;;12.60;99.90;;;;;;5084182;28;20230;-85
2023/02/21 11:05:10;;;;;;;7.03;3.65;;;12.50;99.90;;;;;;5098887;28;20633;-84
2023/02/21 11:07:37;;;;;;;6.32;2.20;;;12.50;99.90;;;;;;5087966;28;20227;-78
2023/02/21 11:10:27;;;;;;;6.90;3.05;;;12.50;99.90;;;;;;5093862;28;20235;-77
2023/02/21 11:13:13;;;;;;;5.05;2.75;;;12.50;99.90;;;;;;5091880;28;20229;-77
2023/02/21 11:15:40;;;;;;;16.63;9.15;;;12.50;99.90;;;;;;5092212;28;20691;-78
2023/02/21 11:18:14;;;;;;;13.15;5.80;;;12.60;99.90;;;;;;5074956;28;20224;-77
2023/02/21 11:20:41;;;;;;;6.30;2.95;;;12.50;99.90;;;;;;5081207;28;20214;-77
2023/02/21 11:23:24;;;;;;;10.88;6.93;;;12.50;99.90;;;;;;5084410;28;20302;-78
2023/02/21 11:25:59;;;;;;;11.93;5.63;;;12.60;99.90;;;;;;5071624;28;20239;-81
2023/02/21 11:28:26;;;;;;;6.43;2.88;;;12.60;99.90;;;;;;5097341;28;20219;-77
2023/02/21 11:31:08;;;;;;;6.97;2.13;;;12.60;99.90;;;;;;5091458;28;20554;-76
2023/02/21 11:33:51;;;;;;;7.88;3.80;;;12.50;99.90;;;;;;5093199;28;20223;-80
2023/02/21 11:36:21;;;;;;;7.35;3.00;;;12.50;99.90;;;;;;5074490;28;20218;-81
2023/02/21 11:39:03;;;;;;;9.30;3.30;;;12.60;99.90;;;;;;5053978;28;20622;-77
2023/02/21 11:41:37;;;;;;;5.07;3.85;;;12.50;99.90;;;;;;5080959;28;20743;-77
2023/02/21 11:44:25;;;;;;;6.45;2.60;;;12.60;99.90;;;;;;5097771;28;20226;-77
2023/02/21 11:47:01;;;;;;;6.75;3.10;;;12.60;99.90;;;;;;5084411;28;20524;-77
2023/02/21 11:49:40;;;;;;;8.50;2.58;;;12.60;99.90;;;;;;5088076;28;20243;-80
2023/02/21 11:52:11;;;;;;;10.07;4.53;;;12.60;99.90;;;;;;5095464;28;20227;-80
2023/02/21 11:54:40;;;;;;;7.75;3.28;;;12.60;99.90;;;;;;5086658;28;20556;-77
2023/02/21 11:57:18;;;;;;;10.40;4.55;;;12.60;99.90;;;;;;5080260;28;20226;-81
2023/02/21 11:59:52;;;;;;;7.82;2.95;;;12.60;99.90;;;;;;5092082;28;20222;-81
2023/02/21 12:02:39;;;;;;;11.35;3.55;;;12.60;99.90;;;;;;5089991;28;20719;-76
2023/02/21 12:05:19;;;;;;;9.73;2.72;;;12.60;99.90;;;;;;5071093;28;20588;-81
2023/02/21 12:07:53;;;;;;;8.68;2.92;;;12.60;99.90;;;;;;5071744;28;20246;-77
2023/02/21 12:10:42;;;;;;;6.72;3.10;;;12.50;99.90;;;;;;5071268;28;20593;-80
2023/02/21 12:13:22;;;;;;;8.70;2.35;;;12.60;99.90;;;;;;5076715;28;20220;-80
2023/02/21 12:16:01;;;;;;;11.80;4.10;;;12.60;99.90;;;;;;5092778;28;20287;-80
2023/02/21 12:18:41;;;;;;;11.05;3.38;;;12.60;99.90;;;;;;5091748;28;20623;-77
2023/02/21 12:21:23;;;;;;;8.90;3.90;;;12.60;99.90;;;;;;5063922;28;20556;-75
2023/02/21 12:24:00;;;;;;;7.43;6.13;;;12.60;99.90;;;;;;5066039;28;20228;-80
2023/02/21 12:26:43;;;;;;;10.80;3.88;;;12.60;99.90;;;;;;5071593;28;20227;-76
2023/02/21 12:29:40;;;;;;;11.32;3.72;;;12.60;99.90;;;;;;5063527;28;20223;-76
2023/02/21 12:32:35;;;;;;;6.57;3.30;;;12.60;99.90;;;;;;5073696;28;20631;-77
2023/02/21 12:35:43;;;;;;;7.38;3.60;;;12.60;99.90;;;;;;5078022;28;20227;-77
2023/02/21 12:38:14;;;;;;;6.00;3.75;;;12.60;99.90;;;;;;5064284;28;20281;-77
2023/02/21 12:40:52;;;;;;;11.95;3.85;;;12.60;99.90;;;;;;5088282;28;20219;-77
2023/02/21 12:43:38;;;;;;;9.55;3.55;;;12.60;99.90;;;;;;5078732;28;20223;-81
2023/02/21 12:46:15;;;;;;;11.65;6.60;;;12.60;99.90;;;;;;5082572;28;20212;-80
2023/02/21 12:48:46;;;;;;;11.40;5.90;;;12.60;99.90;;;;;;5079356;28;20702;-81
2023/02/21 12:51:18;;;;;;;15.35;6.82;;;12.70;99.90;;;;;;5076905;28;20315;-79
2023/02/21 12:53:58;;;;;;;13.43;6.85;;;12.70;99.90;;;;;;5056737;28;20311;-76
2023/02/21 12:56:30;;;;;;;9.68;3.38;;;12.70;99.90;;;;;;5086235;28;20293;-80
2023/02/21 12:59:02;;;;;;;5.30;3.28;;;12.70;99.90;;;;;;5103049;28;20220;-76
2023/02/21 13:01:35;;;;;;;8.02;2.53;;;12.70;99.90;;;;;;5096113;28;20302;-77
2023/02/21 13:04:14;;;;;;;11.10;4.13;;;12.70;99.90;;;;;;5092421;28;20256;-76
2023/02/21 13:06:48;;;;;;;8.30;3.28;;;12.70;99.90;;;;;;5100718;28;20214;-76
2023/02/21 13:09:25;;;;;;;8.38;3.20;;;12.70;99.90;;;;;;5093060;28;20246;-76
2023/02/21 13:12:00;;;;;;;9.15;4.38;;;12.70;99.90;;;;;;5099129;28;20341;-77
2023/02/21 13:14:34;;;;;;;6.78;3.78;;;12.70;99.90;;;;;;5081378;28;20214;-79
2023/02/21 13:17:02;;;;;;;8.27;4.70;;;12.70;99.90;;;;;;5097169;28;20219;-77
2023/02/21 13:19:39;;;;;;;7.07;4.00;;;12.70;99.90;;;;;;5085246;28;20304;-78
2023/02/21 13:25:15;;;;;;;4.82;3.50;;;12.70;99.90;;;;;;5085964;28;20525;-80
2023/02/21 13:27:57;;;;;;;11.10;4.68;;;12.70;99.90;;;;;;5075398;28;20227;-79
2023/02/21 13:30:37;;;;;;;8.85;4.53;;;12.70;99.90;;;;;;5079766;28;20239;-76
2023/02/21 13:33:06;;;;;;;14.95;7.25;;;12.70;99.90;;;;;;5090227;28;20226;-76
2023/02/21 13:35:38;;;;;;;11.05;7.43;;;12.70;99.90;;;;;;5110289;28;20214;-80
2023/02/21 13:38:09;;;;;;;11.63;6.95;;;12.70;99.90;;;;;;5093701;28;20223;-79
2023/02/21 13:40:40;;;;;;;6.00;2.70;;;12.70;99.90;;;;;;5104828;28;20265;-81
2023/02/21 13:43:18;;;;;;;7.80;3.13;;;12.70;99.90;;;;;;5093707;28;20713;-76
2023/02/21 13:45:45;;;;;;;7.53;2.80;;;12.70;99.90;;;;;;5104686;28;20274;-76
2023/02/21 13:48:31;;;;;;;9.32;5.10;;;12.70;99.90;;;;;;5092915;28;20242;-76
2023/02/21 13:51:00;;;;;;;8.10;3.10;;;12.70;99.90;;;;;;5098204;28;20324;-79
2023/02/21 13:53:32;;;;;;;13.25;4.50;;;12.70;99.90;;;;;;5094525;28;20215;-79
2023/02/21 13:56:41;;;;;;;13.60;5.18;;;12.70;99.90;;;;;;5096633;28;20349;-76
2023/02/21 13:59:36;;;;;;;17.08;8.68;;;12.70;99.90;;;;;;5087904;28;20228;-76
2023/02/21 14:02:31;;;;;;;9.52;3.53;;;12.70;99.90;;;;;;5054892;28;20216;-76
2023/02/21 14:05:07;;;;;;;13.27;8.25;;;12.70;99.90;;;;;;5073044;28;20218;-80
2023/02/21 14:07:50;;;;;;;12.35;8.88;;;12.70;99.90;;;;;;5096746;28;20284;-75
2023/02/21 14:10:26;;;;;;;11.95;4.55;;;12.70;99.90;;;;;;5072086;28;20306;-78
2023/02/21 14:12:59;;;;;;;18.15;12.93;;;12.70;99.90;;;;;;5066417;28;20551;-79
2023/02/21 14:15:38;;;;;;;10.85;5.68;;;12.70;99.90;;;;;;5080632;28;20220;-80
2023/02/21 14:18:19;;;;;;;15.93;7.00;;;12.60;99.90;;;;;;5107040;28;20287;-78
2023/02/21 14:20:51;;;;;;;14.27;6.68;;;12.60;99.90;;;;;;5090507;28;20314;-79
2023/02/21 14:23:20;;;;;;;9.70;4.43;;;12.70;99.90;;;;;;5090948;28;20231;-76
2023/02/21 14:25:59;;;;;;;14.65;7.28;;;12.60;99.90;;;;;;5081306;28;20228;-76
2023/02/21 14:28:49;;;;;;;9.27;4.40;;;12.60;99.90;;;;;;5081033;28;20229;-77
2023/02/21 14:31:50;;;;;;;7.35;4.57;;;12.60;99.90;;;;;;5093253;28;20286;-77
2023/02/21 14:34:24;;;;;;;8.05;3.95;;;12.60;99.90;;;;;;5107462;28;20308;-83
2023/02/21 14:36:54;;;;;;;7.55;3.35;;;12.60;99.90;;;;;;5105225;28;20235;-83
2023/02/21 14:39:23;;;;;;;7.20;3.40;;;12.70;99.90;;;;;;5081742;28;20242;-83
2023/02/21 14:42:05;;;;;;;11.00;4.93;;;12.70;99.90;;;;;;5099881;28;20262;-83
2023/02/21 14:44:42;;;;;;;12.05;4.00;;;12.70;99.90;;;;;;5077947;28;20215;-77
2023/02/21 14:47:34;;;;;;;3.50;2.88;;;12.70;99.90;;;;;;5080083;28;20219;-83
2023/02/21 14:50:37;;;;;;;9.00;3.50;;;12.70;99.90;;;;;;5096618;28;20231;-82
2023/02/21 14:53:22;;;;;;;7.90;2.78;;;12.70;99.90;;;;;;5091953;28;20218;-84
2023/02/21 14:56:18;;;;;;;9.30;3.38;;;12.70;99.90;;;;;;5087237;28;20289;-77
2023/02/21 14:59:10;;;;;;;8.55;3.75;;;12.60;99.90;;;;;;5077601;28;20541;-84
2023/02/21 15:01:49;;;;;;;9.13;4.47;;;12.60;99.90;;;;;;5077968;28;20216;-78
2023/02/21 15:04:23;;;;;;;12.40;5.90;;;12.60;99.90;;;;;;5106162;28;20246;-84
2023/02/21 15:07:06;;;;;;;20.55;8.77;;;12.60;99.90;;;;;;5086523;28;20225;-84
2023/02/21 15:09:34;;;;;;;13.73;6.57;;;12.60;99.90;;;;;;5083805;28;20251;-78
2023/02/21 15:12:02;;;;;;;11.98;5.25;;;12.50;99.90;;;;;;5100733;28;20277;-78
2023/02/21 15:14:36;;;;;;;11.07;4.40;;;12.50;99.90;;;;;;5085684;28;20679;-78
2023/02/21 15:17:12;;;;;;;9.95;4.07;;;12.50;99.90;;;;;;5089636;28;20610;-79
2023/02/21 15:19:40;;;;;;;11.35;4.30;;;12.50;99.90;;;;;;5087862;28;20235;-84
2023/02/21 15:22:19;;;;;;;14.77;6.97;;;12.50;99.90;;;;;;5075357;28;20227;-79
2023/02/21 15:25:15;;;;;;;11.73;6.38;;;12.50;99.90;;;;;;5092484;28;20234;-78
2023/02/21 15:27:58;;;;;;;9.98;4.60;;;12.40;99.90;;;;;;5086585;28;20532;-80